Decoded Metar for UKLI (IVANO-FRANKIVSK in UKRAINE) (IATA:N/A) | Meteo·Mobile Aviation Weather
aviador You're here:

UKLI Decoded Metar

IVANO-FRANKIVSK in UKRAINE
Report Time2019-02-17 06:06:00
UTC Time2019-02-17 06:21:39
Flight Rules lifr LIFR
WindCalm
Visibility0550 m
Phenomena:Freezing Fog
Clouds:N/A
CeilingNone
Temp-4°C (ISA -17)
Dew Point-4°C (100% RH)
AAT-6.5°C
QNH1024 hPa
Density Alt-1,503 ft
Elevation919 ft
Report Wrong Elevation
Raw Report
UKLI 170606Z 00000MPS 0550 FZFG NSC M04/M04 Q1024 R28/190068 NOSIG=

Extra information for UKLI:More info

Metar Taf Metar & Taf Last 4 Metars F.Rules Stats Wind Profile Meteogram Temp Stats Airport Information Weather charts Add Link Nearby VenuesMetar ALERT Operation Metar Decoded Social comments